createdAt,value
2016-07-14T00:00:55.612Z,99.9
2016-07-14T00:01:55.676Z,99.14
2016-07-14T00:02:55.594Z,99.33
2016-07-14T00:03:55.606Z,99.62
2016-07-14T00:04:55.610Z,99.62
2016-07-14T00:05:55.614Z,99.99
2016-07-14T00:06:55.620Z,99.99
2016-07-14T00:07:55.630Z,99.99
2016-07-14T00:08:55.608Z,99.99
2016-07-14T00:09:55.630Z,99.52
2016-07-14T00:10:55.623Z,99.81
2016-07-14T00:11:55.615Z,99.99
2016-07-14T00:12:55.647Z,99.99
2016-07-14T00:13:55.596Z,99.99
2016-07-14T00:14:55.627Z,99.99
2016-07-14T00:15:55.617Z,99.99
2016-07-14T00:16:55.651Z,99.99
2016-07-14T00:17:55.649Z,99.99
2016-07-14T00:18:55.648Z,99.99
2016-07-14T00:19:55.642Z,99.99
2016-07-14T00:20:55.610Z,99.99
2016-07-14T00:21:55.640Z,99.99
2016-07-14T00:22:55.663Z,99.99
2016-07-14T00:23:55.603Z,99.99
2016-07-14T00:24:55.635Z,99.99
2016-07-14T00:25:55.599Z,99.99
2016-07-14T00:26:55.618Z,99.99
2016-07-14T00:27:55.671Z,99.99
2016-07-14T00:28:55.645Z,99.99
2016-07-14T00:29:55.653Z,99.99
2016-07-14T00:30:55.673Z,99.99
2016-07-14T00:31:55.640Z,99.99
2016-07-14T00:32:55.641Z,99.99
2016-07-14T00:33:55.665Z,99.99
2016-07-14T00:34:55.661Z,99.99
2016-07-14T00:35:55.671Z,99.99
2016-07-14T00:36:55.670Z,99.99
2016-07-14T00:37:55.677Z,99.99
2016-07-14T00:38:55.684Z,99.99
2016-07-14T00:39:55.651Z,99.99
2016-07-14T00:40:55.736Z,99.99
2016-07-14T00:41:55.641Z,99.99
2016-07-14T00:42:55.683Z,99.99
2016-07-14T00:43:55.677Z,99.99
2016-07-14T00:44:55.671Z,99.99
2016-07-14T00:45:55.704Z,99.99
2016-07-14T00:46:55.690Z,99.99
2016-07-14T00:47:55.683Z,99.99
2016-07-14T00:48:55.634Z,99.99
2016-07-14T00:49:55.718Z,99.99
2016-07-14T00:50:55.665Z,99.99
2016-07-14T00:51:55.672Z,99.99
2016-07-14T00:52:55.671Z,99.99
2016-07-14T00:53:55.675Z,99.99
2016-07-14T00:54:55.652Z,99.99
2016-07-14T00:55:55.749Z,99.99
2016-07-14T00:56:55.650Z,99.99
2016-07-14T00:57:55.641Z,99.99
2016-07-14T00:58:55.645Z,99.99
2016-07-14T00:59:55.680Z,99.99
2016-07-14T01:00:55.668Z,99.99
2016-07-14T01:01:55.658Z,99.99
2016-07-14T01:02:55.682Z,99.99
2016-07-14T01:03:55.699Z,99.99
2016-07-14T01:04:55.684Z,99.99
2016-07-14T01:05:55.690Z,99.99
2016-07-14T01:06:55.686Z,99.99
2016-07-14T01:07:55.675Z,99.99
2016-07-14T01:08:55.725Z,99.99
2016-07-14T01:09:55.645Z,99.99
2016-07-14T01:10:55.741Z,99.99
2016-07-14T01:11:55.702Z,99.99
2016-07-14T01:12:55.707Z,99.99
2016-07-14T01:13:55.672Z,99.99
2016-07-14T01:14:55.664Z,99.99
2016-07-14T01:15:55.676Z,99.99
2016-07-14T01:16:55.703Z,99.99
2016-07-14T01:17:55.673Z,99.99
2016-07-14T01:18:55.699Z,99.99
2016-07-14T01:19:55.705Z,99.99
2016-07-14T01:20:55.672Z,99.99
2016-07-14T01:21:55.682Z,99.99
2016-07-14T01:22:55.686Z,99.99
2016-07-14T01:23:55.685Z,99.99
2016-07-14T01:24:55.726Z,99.99
2016-07-14T01:25:55.676Z,99.99
2016-07-14T01:26:55.677Z,99.99
2016-07-14T01:27:55.708Z,99.99
2016-07-14T01:28:55.722Z,99.99
2016-07-14T01:29:55.724Z,99.99
2016-07-14T01:30:55.738Z,99.99
2016-07-14T01:31:55.671Z,99.99
2016-07-14T01:32:55.673Z,99.99
2016-07-14T01:33:55.745Z,99.99
2016-07-14T01:34:55.749Z,99.99
2016-07-14T01:35:55.693Z,99.99
2016-07-14T01:36:55.683Z,99.99
2016-07-14T01:37:55.680Z,99.99
2016-07-14T01:38:55.684Z,99.99
2016-07-14T01:39:55.691Z,99.99
2016-07-14T01:40:55.707Z,99.99
2016-07-14T01:41:55.683Z,99.99
2016-07-14T01:42:55.676Z,99.99
2016-07-14T01:43:55.690Z,99.99
2016-07-14T01:44:55.767Z,99.99
2016-07-14T01:45:55.712Z,99.99
2016-07-14T01:46:55.738Z,99.99
2016-07-14T01:47:56.486Z,99.99
2016-07-14T01:48:56.004Z,99.99
2016-07-14T01:49:55.825Z,99.99
2016-07-14T01:50:56.308Z,99.99
2016-07-14T01:51:56.069Z,99.99
2016-07-14T01:52:55.829Z,99.99
2016-07-14T01:53:55.864Z,99.99
2016-07-14T01:54:55.799Z,99.99
2016-07-14T01:55:56.856Z,99.99
2016-07-14T01:56:56.109Z,99.99
2016-07-14T01:57:55.935Z,99.99
2016-07-14T01:58:55.788Z,99.99
2016-07-14T01:59:55.825Z,99.99
2016-07-14T02:00:55.830Z,99.99
2016-07-14T02:01:56.073Z,99.99
2016-07-14T02:02:55.711Z,99.99
2016-07-14T02:03:55.705Z,99.99
2016-07-14T02:04:55.754Z,99.99
2016-07-14T02:05:55.765Z,99.99
2016-07-14T02:06:55.735Z,99.99
2016-07-14T02:07:55.757Z,99.99
2016-07-14T02:08:55.704Z,99.99
2016-07-14T02:09:55.726Z,99.99
2016-07-14T02:10:55.802Z,99.99
2016-07-14T02:11:55.767Z,99.99
2016-07-14T02:12:55.772Z,99.99
2016-07-14T02:13:55.764Z,99.99
2016-07-14T02:14:55.741Z,99.99
2016-07-14T02:15:55.702Z,99.99
2016-07-14T02:16:55.707Z,99.99
2016-07-14T02:17:55.756Z,99.99
2016-07-14T02:18:55.857Z,99.99
2016-07-14T02:19:55.737Z,99.99
2016-07-14T02:20:55.735Z,99.99
2016-07-14T02:21:55.733Z,99.99
2016-07-14T02:22:55.767Z,99.99
2016-07-14T02:23:55.736Z,99.99
2016-07-14T02:24:55.765Z,99.99
2016-07-14T02:25:55.717Z,99.99
2016-07-14T02:26:55.751Z,99.99
2016-07-14T02:27:55.749Z,99.99
2016-07-14T02:28:55.764Z,99.99
2016-07-14T02:29:55.745Z,99.99
2016-07-14T02:30:55.737Z,99.99
2016-07-14T02:31:55.738Z,99.99
2016-07-14T02:32:55.743Z,99.99
2016-07-14T02:33:55.755Z,99.99
2016-07-14T02:34:55.796Z,99.99
2016-07-14T02:35:55.756Z,99.99
2016-07-14T02:36:55.794Z,99.99
2016-07-14T02:37:55.755Z,99.99
2016-07-14T02:38:55.766Z,99.99
2016-07-14T02:39:55.737Z,99.99
2016-07-14T02:40:55.760Z,99.99
2016-07-14T02:41:55.742Z,99.99
2016-07-14T02:42:55.789Z,99.99
2016-07-14T02:43:55.767Z,99.99
2016-07-14T02:44:55.726Z,99.99
2016-07-14T02:45:55.798Z,99.99
2016-07-14T02:46:55.738Z,99.99
2016-07-14T02:47:55.736Z,99.99
2016-07-14T02:48:55.764Z,99.99
2016-07-14T02:49:55.769Z,99.99
2016-07-14T02:50:55.748Z,99.99
2016-07-14T02:51:55.784Z,99.99
2016-07-14T02:52:55.740Z,99.99
2016-07-14T02:53:55.838Z,99.99
2016-07-14T02:54:55.748Z,99.99
2016-07-14T02:55:55.770Z,99.99
2016-07-14T02:56:55.777Z,99.99
2016-07-14T02:57:55.800Z,99.99
2016-07-14T02:58:55.773Z,99.99
2016-07-14T02:59:55.738Z,99.99
2016-07-14T03:00:55.787Z,99.99
2016-07-14T03:01:55.803Z,99.99
2016-07-14T03:02:55.738Z,99.99
2016-07-14T03:03:55.742Z,99.99
2016-07-14T03:04:55.770Z,99.99
2016-07-14T03:05:55.774Z,99.99
2016-07-14T03:06:55.838Z,99.99
2016-07-14T03:07:55.769Z,99.99
2016-07-14T03:08:55.757Z,99.99
2016-07-14T03:09:55.768Z,99.99
2016-07-14T03:10:55.773Z,99.99
2016-07-14T03:11:55.777Z,99.99
2016-07-14T03:12:55.771Z,99.99
2016-07-14T03:13:55.775Z,99.99
2016-07-14T03:14:55.755Z,99.99
2016-07-14T03:15:55.762Z,99.99
2016-07-14T03:16:55.841Z,99.99
2016-07-14T03:17:55.785Z,99.99
2016-07-14T03:18:55.751Z,99.99
2016-07-14T03:19:55.771Z,99.99
2016-07-14T03:20:55.764Z,99.99
2016-07-14T03:21:55.781Z,99.99
2016-07-14T03:22:55.771Z,99.99
2016-07-14T03:23:55.801Z,99.99
2016-07-14T03:24:55.770Z,99.99
2016-07-14T03:25:55.789Z,99.99
2016-07-14T03:26:55.784Z,99.99
2016-07-14T03:27:55.779Z,99.99
2016-07-14T03:28:55.782Z,99.99
2016-07-14T03:29:55.808Z,99.99
2016-07-14T03:30:55.784Z,99.99
2016-07-14T03:31:55.792Z,99.99
2016-07-14T03:32:55.815Z,99.99
2016-07-14T03:33:55.839Z,99.99
2016-07-14T03:34:55.814Z,99.99
2016-07-14T03:35:55.784Z,99.99
2016-07-14T03:36:55.771Z,99.99
2016-07-14T03:37:55.806Z,99.99
2016-07-14T03:38:55.785Z,99.99
2016-07-14T03:39:55.809Z,99.99
2016-07-14T03:40:55.824Z,99.99
2016-07-14T03:41:55.785Z,99.99
2016-07-14T03:42:55.841Z,99.99
2016-07-14T03:43:55.778Z,99.99
2016-07-14T03:44:55.838Z,99.99
2016-07-14T03:45:55.865Z,99.99
2016-07-14T03:46:55.860Z,99.99
2016-07-14T03:47:55.784Z,99.99
2016-07-14T03:48:55.779Z,99.99
2016-07-14T03:49:55.833Z,99.99
2016-07-14T03:50:55.879Z,99.99
2016-07-14T03:51:55.775Z,99.99
2016-07-14T03:52:55.810Z,99.99
2016-07-14T03:53:55.807Z,99.99
2016-07-14T03:54:55.779Z,99.99
2016-07-14T03:55:55.786Z,99.99
2016-07-14T03:56:55.807Z,99.99
2016-07-14T03:57:56.388Z,99.99
2016-07-14T03:58:55.803Z,99.99
2016-07-14T03:59:55.857Z,99.99
2016-07-14T04:00:55.796Z,99.99
2016-07-14T04:01:55.801Z,99.99
2016-07-14T04:02:55.836Z,99.99
2016-07-14T04:03:55.817Z,99.99
2016-07-14T04:04:55.807Z,99.99
2016-07-14T04:05:55.830Z,99.99
2016-07-14T04:06:55.840Z,99.99
2016-07-14T04:07:55.813Z,99.99
2016-07-14T04:08:55.813Z,99.99
2016-07-14T04:09:55.831Z,99.99
2016-07-14T04:10:55.836Z,99.99
2016-07-14T04:11:55.812Z,99.99
2016-07-14T04:12:55.819Z,99.99
2016-07-14T04:13:55.815Z,99.99
2016-07-14T04:14:55.834Z,99.99
2016-07-14T04:15:55.809Z,99.99
2016-07-14T04:16:55.804Z,99.99
2016-07-14T04:17:55.793Z,99.99
2016-07-14T04:18:55.824Z,99.99
2016-07-14T04:19:55.877Z,99.99
2016-07-14T04:20:55.829Z,99.99
2016-07-14T04:21:55.837Z,99.99
2016-07-14T04:22:55.826Z,99.99
2016-07-14T04:23:55.840Z,99.99
2016-07-14T04:24:55.811Z,99.99
2016-07-14T04:25:55.811Z,99.99
2016-07-14T04:26:55.843Z,99.99
2016-07-14T04:27:55.841Z,99.99
2016-07-14T04:28:55.838Z,99.99
2016-07-14T04:29:55.822Z,99.99
2016-07-14T04:30:55.809Z,99.99
2016-07-14T04:31:55.817Z,99.99
2016-07-14T04:32:55.813Z,99.99
2016-07-14T04:33:55.835Z,99.99
2016-07-14T04:34:55.846Z,99.99
2016-07-14T04:35:55.904Z,99.99
2016-07-14T04:36:55.873Z,99.99
2016-07-14T04:37:55.894Z,99.99
2016-07-14T04:38:55.855Z,99.99
2016-07-14T04:39:55.842Z,99.99
2016-07-14T04:40:55.877Z,99.99
2016-07-14T04:41:55.905Z,99.99
2016-07-14T04:42:55.873Z,99.99
2016-07-14T04:43:55.848Z,99.99
2016-07-14T04:44:55.909Z,99.99
2016-07-14T04:45:55.846Z,99.99
2016-07-14T04:46:55.930Z,99.99
2016-07-14T04:47:55.878Z,99.99
2016-07-14T04:48:55.846Z,99.99
2016-07-14T04:49:55.840Z,99.99
2016-07-14T04:50:55.845Z,99.99
2016-07-14T04:51:55.847Z,99.99
2016-07-14T04:52:55.842Z,99.99
2016-07-14T04:53:55.831Z,99.99
2016-07-14T04:54:55.873Z,99.99
2016-07-14T04:55:55.846Z,99.99
2016-07-14T04:56:55.851Z,99.99
2016-07-14T04:57:55.827Z,99.99
2016-07-14T04:58:55.828Z,99.99
2016-07-14T04:59:55.849Z,99.99
2016-07-14T05:00:55.872Z,99.99
2016-07-14T05:01:55.835Z,99.99
2016-07-14T05:02:55.869Z,99.99
2016-07-14T05:03:55.895Z,99.99
2016-07-14T05:04:55.845Z,99.99
2016-07-14T05:05:55.869Z,99.99
2016-07-14T05:06:55.883Z,99.99
2016-07-14T05:07:55.905Z,99.99
2016-07-14T05:08:56.498Z,99.99
2016-07-14T05:09:55.891Z,99.99
2016-07-14T05:10:55.899Z,99.99
2016-07-14T05:11:55.866Z,99.99
2016-07-14T05:12:55.879Z,99.99
2016-07-14T05:13:55.884Z,99.99
2016-07-14T05:14:55.912Z,99.99
2016-07-14T05:15:56.057Z,99.99
2016-07-14T05:16:55.899Z,99.99
2016-07-14T05:17:55.948Z,99.99
2016-07-14T05:18:55.868Z,99.99
2016-07-14T05:19:55.880Z,99.99
2016-07-14T05:20:55.878Z,99.99
2016-07-14T05:21:55.900Z,99.99
2016-07-14T05:22:55.857Z,99.99
2016-07-14T05:23:55.868Z,99.99
2016-07-14T05:24:56.111Z,99.99
2016-07-14T05:25:55.916Z,99.99
2016-07-14T05:26:55.886Z,99.99
2016-07-14T05:27:55.869Z,99.99
2016-07-14T05:28:55.875Z,99.99
2016-07-14T05:29:55.911Z,99.99
2016-07-14T05:30:55.899Z,99.99
2016-07-14T05:31:55.864Z,99.99
2016-07-14T05:32:55.874Z,99.99
2016-07-14T05:33:55.899Z,99.99
2016-07-14T05:34:55.861Z,99.99
2016-07-14T05:35:56.447Z,99.99
2016-07-14T05:36:56.075Z,99.99
2016-07-14T05:37:56.625Z,99.99
2016-07-14T05:38:55.901Z,99.99
2016-07-14T05:39:55.920Z,99.99
2016-07-14T05:40:55.900Z,99.99
2016-07-14T05:41:55.878Z,99.99
2016-07-14T05:42:55.918Z,99.99
2016-07-14T05:43:55.902Z,99.99
2016-07-14T05:44:55.966Z,99.99
2016-07-14T05:45:55.949Z,99.99
2016-07-14T05:46:55.952Z,99.99
2016-07-14T05:47:55.913Z,99.99
2016-07-14T05:48:55.880Z,99.99
2016-07-14T05:49:55.886Z,99.99
2016-07-14T05:50:55.910Z,99.99
2016-07-14T05:51:55.875Z,99.99
2016-07-14T05:52:55.933Z,99.99
2016-07-14T05:53:55.873Z,99.99
2016-07-14T05:54:55.930Z,99.99
2016-07-14T05:55:55.873Z,99.99
2016-07-14T05:56:55.960Z,99.99
2016-07-14T05:57:55.915Z,99.99
2016-07-14T05:58:55.893Z,99.99
2016-07-14T05:59:55.902Z,99.99
2016-07-14T06:00:55.901Z,99.99
2016-07-14T06:01:55.911Z,99.99
2016-07-14T06:02:55.893Z,99.99
2016-07-14T06:03:55.877Z,99.99
2016-07-14T06:04:55.901Z,99.99
2016-07-14T06:05:55.945Z,99.99
2016-07-14T06:06:56.595Z,99.99
2016-07-14T06:07:55.886Z,99.99
2016-07-14T06:08:55.903Z,99.99
2016-07-14T06:09:55.934Z,99.99
2016-07-14T06:10:55.915Z,99.99
2016-07-14T06:11:55.924Z,99.99
2016-07-14T06:12:55.900Z,99.99
2016-07-14T06:13:55.935Z,99.99
2016-07-14T06:14:55.902Z,98.14
2016-07-14T06:15:55.928Z,98.04
2016-07-14T06:16:56.470Z,98
2016-07-14T06:17:55.902Z,99.33
2016-07-14T06:18:55.908Z,99.33
2016-07-14T06:19:55.917Z,98.57
2016-07-14T06:20:55.936Z,97.8
2016-07-14T06:21:55.901Z,97.52
2016-07-14T06:22:55.964Z,96.47
2016-07-14T06:23:55.942Z,96.47
2016-07-14T06:24:55.923Z,95.51
2016-07-14T06:25:55.932Z,94.69
2016-07-14T06:26:55.912Z,94.79
2016-07-14T06:27:55.910Z,94.89
2016-07-14T06:28:55.935Z,94.07
2016-07-14T06:29:55.910Z,93.02
2016-07-14T06:30:56.134Z,91.43
2016-07-14T06:31:55.970Z,90.43
2016-07-14T06:32:55.913Z,90.09
2016-07-14T06:33:55.934Z,87.5
2016-07-14T06:34:55.941Z,86.21
2016-07-14T06:35:55.963Z,85.25
2016-07-14T06:36:55.984Z,85.19
2016-07-14T06:37:55.929Z,83.94
2016-07-14T06:38:55.933Z,82.7
2016-07-14T06:39:55.935Z,80.34
2016-07-14T06:40:55.926Z,80.82
2016-07-14T06:41:55.933Z,80.24
2016-07-14T06:42:56.605Z,79.47
2016-07-14T06:43:55.944Z,77.5
2016-07-14T06:44:56.231Z,76.73
2016-07-14T06:45:56.017Z,77.11
2016-07-14T06:46:55.963Z,76.25
2016-07-14T06:47:56.078Z,75.23
2016-07-14T06:48:55.935Z,76.29
2016-07-14T06:49:55.931Z,76.19
2016-07-14T06:50:56.011Z,75.13
2016-07-14T06:51:55.936Z,74.85
2016-07-14T06:52:55.933Z,74.46
2016-07-14T06:53:55.949Z,73.88
2016-07-14T06:54:55.993Z,73.6
2016-07-14T06:55:55.964Z,73.5
2016-07-14T06:56:55.963Z,72.73
2016-07-14T06:57:55.979Z,73.11
2016-07-14T06:58:56.006Z,71.96
2016-07-14T06:59:55.980Z,72.44
2016-07-14T07:00:55.955Z,73.02
2016-07-14T07:01:55.944Z,72.06
2016-07-14T07:02:55.965Z,72.64
2016-07-14T07:03:55.994Z,73.41
2016-07-14T07:04:56.003Z,71.39
2016-07-14T07:05:55.973Z,71.08
2016-07-14T07:06:55.985Z,70.11
2016-07-14T07:07:55.947Z,71.26
2016-07-14T07:08:55.948Z,71.08
2016-07-14T07:09:55.958Z,69.53
2016-07-14T07:10:56.008Z,68.13
2016-07-14T07:11:55.995Z,65.88
2016-07-14T07:12:55.981Z,62.86
2016-07-14T07:13:56.003Z,61.06
2016-07-14T07:16:26.332Z,59.83
2016-07-14T07:17:18.699Z,60.13
2016-07-14T07:18:18.661Z,58.32
2016-07-14T07:19:18.694Z,57.6
2016-07-14T07:20:19.161Z,55.81
2016-07-14T07:21:18.687Z,55.04
2016-07-14T07:22:19.547Z,52.65
2016-07-14T07:23:18.688Z,52.19
2016-07-14T07:24:18.676Z,51.25
2016-07-14T07:25:18.945Z,49.15
2016-07-14T07:26:18.812Z,48.76
2016-07-14T07:27:18.801Z,48.69
2016-07-14T07:28:18.668Z,47.84
2016-07-14T07:29:18.965Z,48.42
2016-07-14T07:30:19.007Z,47.84
2016-07-14T07:31:18.682Z,47.47
2016-07-14T07:32:18.668Z,46.51
2016-07-14T07:33:18.709Z,47.11
2016-07-14T07:34:18.715Z,47.47
2016-07-14T07:35:18.738Z,48.74
2016-07-14T07:36:18.716Z,49.39
2016-07-14T07:37:18.706Z,49.27
2016-07-14T07:38:18.706Z,48.69
2016-07-14T07:39:18.684Z,48.57
2016-07-14T07:40:19.087Z,48.47
2016-07-14T07:41:18.723Z,47.91
2016-07-14T07:42:18.719Z,48.03
2016-07-14T07:43:18.706Z,47.74
2016-07-14T07:44:18.707Z,47.26
2016-07-14T07:45:18.727Z,47.09
2016-07-14T07:46:18.710Z,46.22
2016-07-14T07:47:18.680Z,47.28
2016-07-14T07:48:18.756Z,48.79
2016-07-14T07:49:18.879Z,48.37
2016-07-14T07:50:18.708Z,48.39
2016-07-14T07:51:18.855Z,47.74
2016-07-14T07:52:18.718Z,46.58
2016-07-14T07:53:18.756Z,45.83
2016-07-14T07:54:18.828Z,44.49
2016-07-14T07:55:18.799Z,44.76
2016-07-14T07:56:18.814Z,45.25
2016-07-14T07:57:18.741Z,46.19
2016-07-14T07:58:18.703Z,47.43
2016-07-14T07:59:18.710Z,49.15
2016-07-14T08:00:18.713Z,48.74
2016-07-14T08:01:18.708Z,48.81
2016-07-14T08:02:18.728Z,49.37
2016-07-14T08:03:18.746Z,51.1
2016-07-14T08:04:18.751Z,52.4
2016-07-14T08:05:18.755Z,53.92
2016-07-14T08:06:18.784Z,55.15
2016-07-14T08:07:18.810Z,56.21
2016-07-14T08:08:18.819Z,56.4
2016-07-14T08:09:18.768Z,54.96
2016-07-14T08:10:18.769Z,54.6
2016-07-14T08:11:18.719Z,54.82
2016-07-14T08:12:18.773Z,53.66
2016-07-14T08:13:18.714Z,53.88
2016-07-14T08:14:18.752Z,52.26
2016-07-14T08:15:18.745Z,50.71
2016-07-14T08:16:18.771Z,51.61
2016-07-14T08:17:18.784Z,52.48
2016-07-14T08:18:18.750Z,51.42
2016-07-14T08:19:18.843Z,52.58
2016-07-14T08:20:18.779Z,53.28
2016-07-14T08:21:18.738Z,52.77
2016-07-14T08:22:18.730Z,52.45
2016-07-14T08:23:18.774Z,51.87
2016-07-14T08:24:18.796Z,52.23
2016-07-14T08:25:18.746Z,52.91
2016-07-14T08:26:18.816Z,54.05
2016-07-14T08:27:18.795Z,53.95
2016-07-14T08:28:18.739Z,54.33
2016-07-14T08:29:18.822Z,52.76
2016-07-14T08:30:18.781Z,55.2
2016-07-14T08:31:18.764Z,55.4
2016-07-14T08:32:18.776Z,56.26
2016-07-14T08:33:18.761Z,55.46
2016-07-14T08:34:18.780Z,55.3
2016-07-14T08:35:18.739Z,54.6
2016-07-14T08:36:18.775Z,55.34
2016-07-14T08:37:18.789Z,56.81
2016-07-14T08:38:18.788Z,57.39
2016-07-14T08:39:18.773Z,57.56
2016-07-14T08:40:18.779Z,57.27
2016-07-14T08:41:18.771Z,57.75
2016-07-14T08:42:18.754Z,59.65
2016-07-14T08:43:18.741Z,58.78
2016-07-14T08:44:18.771Z,58.01
2016-07-14T08:45:18.744Z,57.92
2016-07-14T08:46:18.835Z,59.14
2016-07-14T08:47:18.772Z,57.92
2016-07-14T08:48:18.836Z,59.17
2016-07-14T08:49:18.844Z,58.85
2016-07-14T08:50:18.823Z,60.68
2016-07-14T08:51:18.785Z,61.55
2016-07-14T08:52:18.842Z,61.55
2016-07-14T08:53:18.797Z,61.55
2016-07-14T08:54:18.787Z,61.25
2016-07-14T08:55:18.809Z,61.19
2016-07-14T08:56:18.776Z,60.87
2016-07-14T08:57:18.805Z,60.87
2016-07-14T08:58:18.773Z,60.52
2016-07-14T08:59:18.867Z,60.71
2016-07-14T09:00:18.748Z,61.1
2016-07-14T09:01:18.767Z,60.8
2016-07-14T09:02:18.770Z,63.21
2016-07-14T09:03:18.758Z,63.12
2016-07-14T09:04:18.782Z,63.76
2016-07-14T09:05:18.788Z,63.95
2016-07-14T09:06:18.783Z,63.09
2016-07-14T09:07:18.789Z,62.9
2016-07-14T09:08:18.781Z,62.51
2016-07-14T09:09:18.783Z,62.63
2016-07-14T09:10:18.764Z,61.48
2016-07-14T09:11:18.769Z,62.54
2016-07-14T09:12:18.781Z,62.66
2016-07-14T09:13:18.797Z,62.45
2016-07-14T09:14:18.809Z,62.25
2016-07-14T09:15:18.862Z,62.73
2016-07-14T09:16:18.879Z,62.73
2016-07-14T09:17:18.861Z,63.41
2016-07-14T09:18:18.815Z,62.93
2016-07-14T09:19:18.806Z,63.02
2016-07-14T09:20:18.771Z,63.41
2016-07-14T09:21:18.845Z,63.7
2016-07-14T09:22:18.835Z,64.18
2016-07-14T09:23:18.813Z,63.31
2016-07-14T09:24:18.805Z,62.32
2016-07-14T09:25:18.848Z,62.8
2016-07-14T09:26:18.861Z,61.65
2016-07-14T09:27:18.844Z,60.9
2016-07-14T09:28:18.806Z,61.1
2016-07-14T09:29:18.889Z,60.9
2016-07-14T09:30:19.370Z,61.19
2016-07-14T09:31:18.855Z,61.07
2016-07-14T09:32:18.832Z,60.49
2016-07-14T09:33:18.892Z,60.8
2016-07-14T09:34:18.847Z,61
2016-07-14T09:35:18.814Z,61.87
2016-07-14T09:36:18.873Z,61.68
2016-07-14T09:37:19.131Z,61.32
2016-07-14T09:38:18.880Z,61.22
2016-07-14T09:39:18.927Z,60.96
2016-07-14T09:40:18.834Z,60.13
2016-07-14T09:41:19.451Z,59.06
2016-07-14T09:42:18.862Z,58.1
2016-07-14T09:43:18.844Z,58
2016-07-14T09:44:18.889Z,58.75
2016-07-14T09:45:19.104Z,57.9
2016-07-14T09:46:18.835Z,59.06
2016-07-14T09:47:19.960Z,59.32
2016-07-14T09:48:19.686Z,60.28
2016-07-14T09:49:19.001Z,60.38
2016-07-14T09:50:18.917Z,60.16
2016-07-14T09:51:18.898Z,60.16
2016-07-14T09:52:18.905Z,60.61
2016-07-14T09:53:18.878Z,61.38
2016-07-14T09:54:18.843Z,62.45
2016-07-14T09:55:18.894Z,61.68
2016-07-14T09:56:18.883Z,61.48
2016-07-14T09:57:18.893Z,60.93
2016-07-14T09:58:18.856Z,60.64
2016-07-14T09:59:18.862Z,60.19
2016-07-14T10:00:18.926Z,61.06
2016-07-14T10:01:18.922Z,61.25
2016-07-14T10:02:18.971Z,61.64
2016-07-14T10:03:18.926Z,60.03
2016-07-14T10:04:18.951Z,55.49
2016-07-14T10:05:18.873Z,55.2
2016-07-14T10:06:18.877Z,58.39
2016-07-14T10:07:18.915Z,56.2
2016-07-14T10:08:18.924Z,55.68
2016-07-14T10:09:18.975Z,56.62
2016-07-14T10:10:18.880Z,56.62
2016-07-14T10:11:19.439Z,57.37
2016-07-14T10:12:18.935Z,58.14
2016-07-14T10:13:18.966Z,57.17
2016-07-14T10:14:19.545Z,56.98
2016-07-14T10:15:18.941Z,57.46
2016-07-14T10:16:18.897Z,58.33
2016-07-14T10:17:18.874Z,58.62
2016-07-14T10:18:18.936Z,58.62
2016-07-14T10:19:18.864Z,60.35
2016-07-14T10:20:19.028Z,61.13
2016-07-14T10:21:18.869Z,59.2
2016-07-14T10:22:18.901Z,60.28
2016-07-14T10:23:18.925Z,60.45
2016-07-14T10:24:18.873Z,58.72
2016-07-14T10:25:18.900Z,58.36
2016-07-14T10:26:18.903Z,58.26
2016-07-14T10:27:18.921Z,57.39
2016-07-14T10:28:18.920Z,55.94
2016-07-14T10:29:18.865Z,57.29
2016-07-14T10:30:18.899Z,57.29
2016-07-14T10:31:18.893Z,59.1
2016-07-14T10:32:18.852Z,59.65
2016-07-14T10:33:18.878Z,58.88
2016-07-14T10:34:18.925Z,60.1
2016-07-14T10:35:18.904Z,60.77
2016-07-14T10:36:18.870Z,61.04
2016-07-14T10:37:18.947Z,61.61
2016-07-14T10:38:18.866Z,63.06
2016-07-14T10:39:18.890Z,64.37
2016-07-14T10:40:18.985Z,64.66
2016-07-14T10:41:18.872Z,63.7
2016-07-14T10:42:18.875Z,64.43
2016-07-14T10:43:18.972Z,65.01
2016-07-14T10:44:18.881Z,63.95
2016-07-14T10:45:18.973Z,64.73
2016-07-14T10:46:18.988Z,65.56
2016-07-14T10:47:18.903Z,65.11
2016-07-14T10:48:18.898Z,65.17
2016-07-14T10:49:19.534Z,64.02
2016-07-14T10:50:18.901Z,64.31
2016-07-14T10:51:18.879Z,63.57
2016-07-14T10:52:18.907Z,65.01
2016-07-14T10:53:18.924Z,64.43
2016-07-14T10:54:18.886Z,63.76
2016-07-14T10:55:18.909Z,63.18
2016-07-14T10:56:18.911Z,62.83
2016-07-14T10:57:18.920Z,62.26
2016-07-14T10:58:18.922Z,61.19
2016-07-14T10:59:18.906Z,60.24
2016-07-14T11:00:18.965Z,61.32
2016-07-14T11:01:18.909Z,59.97
2016-07-14T11:02:18.941Z,58.82
2016-07-14T11:03:18.962Z,59.11
2016-07-14T11:04:18.998Z,60.07
2016-07-14T11:05:18.919Z,59.88
2016-07-14T11:06:18.930Z,60.49
2016-07-14T11:07:18.921Z,58.95
2016-07-14T11:08:18.946Z,56.44
2016-07-14T11:09:18.902Z,56.09
2016-07-14T11:10:18.909Z,57.14
2016-07-14T11:11:18.907Z,56.15
2016-07-14T11:12:18.898Z,57.14
2016-07-14T11:14:07.827Z,58.97
2016-07-14T11:14:19.558Z,58.01
2016-07-14T11:15:19.603Z,57.14
2016-07-14T11:16:19.587Z,57.92
2016-07-14T11:17:19.565Z,58.2
2016-07-14T11:18:19.554Z,56.69
2016-07-14T11:19:19.540Z,56.09
2016-07-14T11:20:19.565Z,56.09
2016-07-14T11:21:19.528Z,56.95
2016-07-14T11:22:19.625Z,57.14
2016-07-14T11:23:19.603Z,57.14
2016-07-14T11:24:19.582Z,57.14
2016-07-14T11:25:19.599Z,56.18
2016-07-14T11:26:19.564Z,57.14
2016-07-14T11:27:19.581Z,55.99
2016-07-14T11:28:19.566Z,56.57
2016-07-14T11:29:19.553Z,56.18
2016-07-14T11:30:19.560Z,56.95
2016-07-14T11:31:19.573Z,57.72
2016-07-14T11:32:19.590Z,57.92
2016-07-14T11:33:19.559Z,57.72
2016-07-14T11:34:19.569Z,57.07
2016-07-14T11:35:19.575Z,56.3
2016-07-14T11:36:19.560Z,54.18
2016-07-14T11:37:19.573Z,53.8
2016-07-14T11:38:19.571Z,53.83
2016-07-14T11:39:19.573Z,52.95
2016-07-14T11:40:19.649Z,52.57
2016-07-14T11:41:19.565Z,53.85
2016-07-14T11:42:19.573Z,53.85
2016-07-14T11:43:19.593Z,53.75
2016-07-14T11:44:19.625Z,55.4
2016-07-14T11:45:19.566Z,52.01
2016-07-14T11:46:19.572Z,51.03
2016-07-14T11:47:19.609Z,50.45
2016-07-14T11:48:19.621Z,51.12
2016-07-14T11:49:19.560Z,50.84
2016-07-14T11:50:20.130Z,53.05
2016-07-14T11:51:19.574Z,51.8
2016-07-14T11:52:19.568Z,52.45
2016-07-14T11:53:19.590Z,52.86
2016-07-14T11:54:19.597Z,52.76
2016-07-14T11:55:19.593Z,52.37
2016-07-14T11:56:19.643Z,52.59
2016-07-14T11:57:19.617Z,52.59
2016-07-14T11:58:19.593Z,52.4
2016-07-14T11:59:19.574Z,52.69
2016-07-14T12:00:19.607Z,52.57
2016-07-14T12:01:19.584Z,53.73
2016-07-14T12:02:19.593Z,52.76
2016-07-14T12:03:19.605Z,55.24
2016-07-14T12:04:19.598Z,55.15
2016-07-14T12:05:19.588Z,55.73
2016-07-14T12:06:19.594Z,55.34
2016-07-14T12:08:19.849Z,54.74
2016-07-14T12:10:19.592Z,54.16
2016-07-14T12:11:19.584Z,53.39
2016-07-14T12:12:19.594Z,54.54
2016-07-14T12:13:19.591Z,53.96
2016-07-14T12:14:19.622Z,53.96
2016-07-14T12:15:19.662Z,54.64
2016-07-14T12:16:19.663Z,55.6
2016-07-14T12:17:20.343Z,54.44
2016-07-14T12:18:19.665Z,55.12
2016-07-14T12:19:19.733Z,56.37
2016-07-14T12:20:19.682Z,58.01
2016-07-14T12:21:19.608Z,59.36
2016-07-14T12:22:19.597Z,58.85
2016-07-14T12:23:19.597Z,59.62
2016-07-14T12:24:19.641Z,60.46
2016-07-14T12:25:19.666Z,61.42
2016-07-14T12:26:20.335Z,61.22
2016-07-14T12:27:19.614Z,62
2016-07-14T12:28:19.677Z,61.13
2016-07-14T12:29:19.639Z,59.2
2016-07-14T12:30:19.658Z,59.4
2016-07-14T12:31:19.707Z,60.07
2016-07-14T12:32:19.640Z,59.59
2016-07-14T12:33:19.710Z,58.15
2016-07-14T12:34:19.673Z,58.92
2016-07-14T12:35:19.704Z,59.3
2016-07-14T12:36:19.624Z,57.86
2016-07-14T12:37:19.643Z,58.82
2016-07-14T12:38:19.638Z,59.2
2016-07-14T12:39:19.697Z,60.65
2016-07-14T12:40:19.643Z,60.07
2016-07-14T12:41:19.626Z,58.82
2016-07-14T12:42:19.662Z,60.27
2016-07-14T12:43:19.664Z,60.84
2016-07-14T12:44:19.655Z,61.22
2016-07-14T12:45:19.884Z,61.22
2016-07-14T12:46:19.617Z,61.13
2016-07-14T12:47:20.319Z,61.52
2016-07-14T12:48:19.832Z,60.27
2016-07-14T12:49:19.655Z,60.17
2016-07-14T12:50:19.653Z,59.97
2016-07-14T12:51:19.690Z,60.07
2016-07-14T12:52:19.615Z,60.55
2016-07-14T12:53:19.723Z,61.32
2016-07-14T12:54:19.767Z,59.49
2016-07-14T12:55:19.624Z,58.92
2016-07-14T12:56:19.659Z,57.86
2016-07-14T12:57:19.733Z,57.09
2016-07-14T12:58:19.708Z,56.6